Volcan De Tamasite — ECFE — position and weather

sailwx.info

Track history (hours):
 
Tides and Currents Weather Stations Pressure Air Temp Water Temp Dewpoint Dewpoint Depression Visibility Wind Speed Wind Dir Waves Ship Positions

Volcan De Tamasite

Last reported at 2017-Feb-25 11:33 UTC. Time now 2017-Feb-25 11:44 UTC.
Position N 28°08' W 015°12'.

Length 141 m; draft 5.4 m.

Type: Passenger vessel. MMSI: 224093000.

Date/timePositionNaut miles runAvg speedWind from/ knotsBaromVisibWave heightAir tempDewpointWater temp
2017-Feb-25 11:33N 28°08' W 015°12'1110.7
2017-Feb-25 10:33N 28°10' W 015°24'1413.5
2017-Feb-25 09:33N 28°16' W 015°37'2120.9
2017-Feb-25 08:33N 28°24' W 015°59'12 1.1
2017-Feb-24 21:33N 28°20' W 015°46'2120.7
2017-Feb-24 20:33N 28°12' W 015°24'2 2.3
2017-Feb-24 19:33N 28°10' W 015°24'2 2.3
2017-Feb-24 18:33N 28°08' W 015°22'2121.2
2017-Feb-24 17:33N 28°05' W 014°58'2121.2
2017-Feb-24 16:33N 28°02' W 014°34'11 8.3
2017-Feb-24 15:15N 28°03' W 014°22'0 0.0
2017-Feb-24 14:32N 28°03' W 014°22'19 9.6
2017-Feb-24 12:33N 28°03' W 014°43'2120.8
2017-Feb-24 11:33N 28°07' W 015°07'1615.5
2017-Feb-24 10:33N 28°10' W 015°24'7 7.2
2017-Feb-24 09:34N 28°14' W 015°30'2121.0
2017-Feb-24 08:33N 28°22' W 015°53'20 2.5
2017-Feb-24 00:29N 28°28' W 016°15'22 7.3
2017-Feb-23 21:32N 28°21' W 015°51'2020.9
2017-Feb-23 20:34N 28°14' W 015°30'7 6.9
2017-Feb-23 19:33N 28°10' W 015°24'0 0.5
2017-Feb-23 18:33N 28°10' W 015°23'2019.7
2017-Feb-23 17:33N 28°18' W 015°43'2020.5
2017-Feb-23 16:33N 28°26' W 016°05'11 3.7
2017-Feb-23 13:29N 28°22' W 015°53'2021.1
2017-Feb-23 12:33N 28°15' W 015°33'9 9.1
2017-Feb-23 11:34N 28°10' W 015°24'0 0.0
2017-Feb-23 10:34N 28°10' W 015°24'7 6.9
2017-Feb-23 09:34N 28°14' W 015°30'2121.1
2017-Feb-23 08:34N 28°21' W 015°53'21 2.3
2017-Feb-22 23:33N 28°28' W 016°15'2311.2
2017-Feb-22 21:27N 28°21' W 015°49'1820.5
2017-Feb-22 20:33N 28°14' W 015°30'7 6.9
2017-Feb-22 19:33N 28°10' W 015°24'3 3.4
2017-Feb-22 18:33N 28°08' W 015°20'2120.5
2017-Feb-22 17:33N 28°05' W 014°57'2120.6
2017-Feb-22 16:33N 28°02' W 014°34'1111.1
2017-Feb-22 15:33N 28°03' W 014°22'0 0.0
2017-Feb-22 13:12N 28°03' W 014°22'0 0.0
2017-Feb-22 12:26N 28°03' W 014°22'0 0.0
2017-Feb-22 11:32N 28°03' W 014°22'8 7.2
2017-Feb-22 10:22N 28°02' W 014°31'1720.9
2017-Feb-22 09:33N 28°04' W 014°50'2120.8
2017-Feb-22 08:33N 28°05' W 015°14'1010.2
2017-Feb-22 07:33N 28°08' W 015°25'0 0.0
2017-Feb-22 06:33N 28°08' W 015°25'0 0.0
2017-Feb-22 05:33N 28°08' W 015°25'0 0.0
2017-Feb-22 04:33N 28°08' W 015°25'0 0.0
2017-Feb-22 03:33N 28°08' W 015°25'0 0.0
2017-Feb-22 02:33N 28°08' W 015°25'0 0.0
2017-Feb-22 01:33N 28°08' W 015°25'0 0.0
2017-Feb-22 00:33N 28°08' W 015°25'0 0.0
2017-Feb-21 23:33N 28°08' W 015°25'0 0.0
2017-Feb-21 22:33N 28°08' W 015°25'0 0.0
2017-Feb-21 21:33N 28°08' W 015°25'0 0.0
2017-Feb-21 20:33N 28°08' W 015°25'0 0.0
2017-Feb-21 19:33N 28°08' W 015°25'7 6.6
2017-Feb-21 18:33N 28°07' W 015°18'2020.2
2017-Feb-21 17:34N 28°04' W 014°55'2020.4
2017-Feb-21 16:33N 28°02' W 014°32'9 2.8
2017-Feb-21 13:23N 28°03' W 014°22'0 0.0
2017-Feb-21 11:29N 28°03' W 014°22'8 7.3
2017-Feb-21 10:21N 28°02' W 014°31'1620.8
2017-Feb-21 09:33N 28°04' W 014°49'2120.7
2017-Feb-21 08:33N 28°05' W 015°13'1110.9
2017-Feb-21 07:33N 28°08' W 015°25'0 0.0
2017-Feb-21 06:33N 28°08' W 015°25'0 0.0
2017-Feb-21 05:33N 28°08' W 015°25'0 0.0
2017-Feb-21 04:33N 28°08' W 015°25'0 0.0
2017-Feb-21 03:33N 28°08' W 015°25'0 0.0
2017-Feb-21 02:33N 28°08' W 015°25'0 0.0
2017-Feb-21 01:33N 28°08' W 015°25'0 0.0
2017-Feb-21 00:33N 28°08' W 015°25'0 0.0
2017-Feb-20 23:33N 28°08' W 015°25'0 0.0
2017-Feb-20 22:33N 28°08' W 015°25'0 0.0
2017-Feb-20 21:33N 28°08' W 015°25'0 0.0
2017-Feb-20 20:33N 28°08' W 015°25'0 0.0
2017-Feb-20 19:33N 28°08' W 015°25'5 5.3
2017-Feb-20 18:33N 28°06' W 015°19'2120.9
2017-Feb-20 17:33N 28°04' W 014°56'2120.8
2017-Feb-20 16:33N 28°02' W 014°32'9 6.5
2017-Feb-20 15:06N 28°03' W 014°22'0 0.0
2017-Feb-20 14:30N 28°03' W 014°22'0 0.0
2017-Feb-20 13:33N 28°03' W 014°22'0 0.0
2017-Feb-20 11:25N 28°03' W 014°22'8 8.2
2017-Feb-20 10:26N 28°02' W 014°31'1820.8
2017-Feb-20 09:33N 28°04' W 014°51'29 0.6
2017-Feb-18 10:33N 28°10' W 015°24'1110.6
2017-Feb-18 09:33N 28°15' W 015°34'2120.8
2017-Feb-18 08:33N 28°23' W 015°56'1712.3
2017-Feb-18 07:09N 28°28' W 016°15'0 0.0
2017-Feb-18 04:25N 28°28' W 016°15'0 0.0
2017-Feb-17 23:33N 28°28' W 016°15'2 1.6
2017-Feb-17 22:31N 28°29' W 016°13'2220.7
2017-Feb-17 21:26N 28°21' W 015°49'1921.0
2017-Feb-17 20:33N 28°14' W 015°30'7 6.5
2017-Feb-17 19:33N 28°10' W 015°24'3 3.4
2017-Feb-17 18:33N 28°08' W 015°20'2120.9
2017-Feb-17 17:33N 28°05' W 014°57'2120.8
2017-Feb-17 16:33N 28°02' W 014°34'1010.5
2017-Feb-17 15:33N 28°03' W 014°22'0 0.0
2017-Feb-17 14:33N 28°03' W 014°22'1 0.7
2017-Feb-17 13:33N 28°03' W 014°23'2020.4
2017-Feb-17 12:34N 28°04' W 014°45'2121.2
2017-Feb-17 11:34N 28°07' W 015°09'1313.3
2017-Feb-17 10:33N 28°10' W 015°24'1010.1
2017-Feb-17 09:33N 28°15' W 015°33'2121.2
2017-Feb-17 08:33N 28°23' W 015°56'1717.1
2017-Feb-17 07:32N 28°28' W 016°15'0 0.0
2017-Feb-17 06:25N 28°28' W 016°15'0 0.0
2017-Feb-17 05:33N 28°28' W 016°15'0 0.0
2017-Feb-17 04:33N 28°28' W 016°15'0 0.0
2017-Feb-17 03:21N 28°28' W 016°15'0 0.0
2017-Feb-17 02:27N 28°28' W 016°15'0 0.0
2017-Feb-17 01:33N 28°28' W 016°15'0 0.0
2017-Feb-17 00:33N 28°28' W 016°15'0 0.0
2017-Feb-16 23:29N 28°28' W 016°15'2411.6
2017-Feb-16 21:24N 28°20' W 015°49'1821.1
2017-Feb-16 20:33N 28°14' W 015°30'7 6.6
2017-Feb-16 19:33N 28°10' W 015°24'0 0.4
2017-Feb-16 18:33N 28°09' W 015°24'2019.6
2017-Feb-16 17:33N 28°18' W 015°43'2120.8
2017-Feb-16 16:33N 28°26' W 016°05'9 8.5
2017-Feb-16 15:33N 28°28' W 016°15'0 0.2
2017-Feb-16 14:33N 28°28' W 016°15'2218.2
2017-Feb-16 13:22N 28°21' W 015°51'1721.4
2017-Feb-16 12:33N 28°15' W 015°33'10 9.5
2017-Feb-16 11:33N 28°10' W 015°24'0 0.0
2017-Feb-16 10:33N 28°10' W 015°24'7 7.1
2017-Feb-16 09:33N 28°14' W 015°30'2121.3
2017-Feb-16 08:33N 28°22' W 015°53'20 2.2
2017-Feb-15 23:26N 28°28' W 016°15'2010.5
2017-Feb-15 21:29N 28°22' W 015°53'2022.0
2017-Feb-15 20:33N 28°14' W 015°31'8 8.1
2017-Feb-15 19:34N 28°10' W 015°24'1 1.2
2017-Feb-15 18:33N 28°09' W 015°23'2221.7
2017-Feb-15 17:33N 28°05' W 014°59'2221.7
2017-Feb-15 16:33N 28°02' W 014°34'1111.0
2017-Feb-15 15:33N 28°03' W 014°22'0 0.0
2017-Feb-15 14:33N 28°03' W 014°22'0 0.0
2017-Feb-15 13:33N 28°03' W 014°22'0 0.0
2017-Feb-15 12:33N 28°03' W 014°22'  
Track history (hours):
 
Tides and Currents Weather Stations Pressure Air Temp Water Temp Dewpoint Dewpoint Depression Visibility Wind Speed Wind Dir Waves Ship Positions

Volcan De Tamasite

Last reported at 2017-Feb-25 11:33 UTC. Time now 2017-Feb-25 11:44 UTC.
Position N 28°08' W 015°12'.

Length 141 m; draft 5.4 m.

Type: Passenger vessel. MMSI: 224093000.

Date/timePositionNaut miles runAvg speedWind from/ knotsBaromVisibWave heightAir tempDewpointWater temp
2017-Feb-25 11:33N 28°08' W 015°12'1110.7
2017-Feb-25 10:33N 28°10' W 015°24'1413.5
2017-Feb-25 09:33N 28°16' W 015°37'2120.9
2017-Feb-25 08:33N 28°24' W 015°59'12 1.1
2017-Feb-24 21:33N 28°20' W 015°46'2120.7
2017-Feb-24 20:33N 28°12' W 015°24'2 2.3
2017-Feb-24 19:33N 28°10' W 015°24'2 2.3
2017-Feb-24 18:33N 28°08' W 015°22'2121.2
2017-Feb-24 17:33N 28°05' W 014°58'2121.2
2017-Feb-24 16:33N 28°02' W 014°34'11 8.3
2017-Feb-24 15:15N 28°03' W 014°22'0 0.0
2017-Feb-24 14:32N 28°03' W 014°22'19 9.6
2017-Feb-24 12:33N 28°03' W 014°43'2120.8
2017-Feb-24 11:33N 28°07' W 015°07'1615.5
2017-Feb-24 10:33N 28°10' W 015°24'7 7.2
2017-Feb-24 09:34N 28°14' W 015°30'2121.0
2017-Feb-24 08:33N 28°22' W 015°53'20 2.5
2017-Feb-24 00:29N 28°28' W 016°15'22 7.3
2017-Feb-23 21:32N 28°21' W 015°51'2020.9
2017-Feb-23 20:34N 28°14' W 015°30'7 6.9
2017-Feb-23 19:33N 28°10' W 015°24'0 0.5
2017-Feb-23 18:33N 28°10' W 015°23'2019.7
2017-Feb-23 17:33N 28°18' W 015°43'2020.5
2017-Feb-23 16:33N 28°26' W 016°05'11 3.7
2017-Feb-23 13:29N 28°22' W 015°53'2021.1
2017-Feb-23 12:33N 28°15' W 015°33'9 9.1
2017-Feb-23 11:34N 28°10' W 015°24'0 0.0
2017-Feb-23 10:34N 28°10' W 015°24'7 6.9
2017-Feb-23 09:34N 28°14' W 015°30'2121.1
2017-Feb-23 08:34N 28°21' W 015°53'21 2.3
2017-Feb-22 23:33N 28°28' W 016°15'2311.2
2017-Feb-22 21:27N 28°21' W 015°49'1820.5
2017-Feb-22 20:33N 28°14' W 015°30'7 6.9
2017-Feb-22 19:33N 28°10' W 015°24'3 3.4
2017-Feb-22 18:33N 28°08' W 015°20'2120.5
2017-Feb-22 17:33N 28°05' W 014°57'2120.6
2017-Feb-22 16:33N 28°02' W 014°34'1111.1
2017-Feb-22 15:33N 28°03' W 014°22'0 0.0
2017-Feb-22 13:12N 28°03' W 014°22'0 0.0
2017-Feb-22 12:26N 28°03' W 014°22'0 0.0
2017-Feb-22 11:32N 28°03' W 014°22'8 7.2
2017-Feb-22 10:22N 28°02' W 014°31'1720.9
2017-Feb-22 09:33N 28°04' W 014°50'2120.8
2017-Feb-22 08:33N 28°05' W 015°14'1010.2
2017-Feb-22 07:33N 28°08' W 015°25'0 0.0
2017-Feb-22 06:33N 28°08' W 015°25'0 0.0
2017-Feb-22 05:33N 28°08' W 015°25'0 0.0
2017-Feb-22 04:33N 28°08' W 015°25'0 0.0
2017-Feb-22 03:33N 28°08' W 015°25'0 0.0
2017-Feb-22 02:33N 28°08' W 015°25'0 0.0
2017-Feb-22 01:33N 28°08' W 015°25'0 0.0
2017-Feb-22 00:33N 28°08' W 015°25'0 0.0
2017-Feb-21 23:33N 28°08' W 015°25'0 0.0
2017-Feb-21 22:33N 28°08' W 015°25'0 0.0
2017-Feb-21 21:33N 28°08' W 015°25'0 0.0
2017-Feb-21 20:33N 28°08' W 015°25'0 0.0
2017-Feb-21 19:33N 28°08' W 015°25'7 6.6
2017-Feb-21 18:33N 28°07' W 015°18'2020.2
2017-Feb-21 17:34N 28°04' W 014°55'2020.4
2017-Feb-21 16:33N 28°02' W 014°32'9 2.8
2017-Feb-21 13:23N 28°03' W 014°22'0 0.0
2017-Feb-21 11:29N 28°03' W 014°22'8 7.3
2017-Feb-21 10:21N 28°02' W 014°31'1620.8
2017-Feb-21 09:33N 28°04' W 014°49'2120.7
2017-Feb-21 08:33N 28°05' W 015°13'1110.9
2017-Feb-21 07:33N 28°08' W 015°25'0 0.0
2017-Feb-21 06:33N 28°08' W 015°25'0 0.0
2017-Feb-21 05:33N 28°08' W 015°25'0 0.0
2017-Feb-21 04:33N 28°08' W 015°25'0 0.0
2017-Feb-21 03:33N 28°08' W 015°25'0 0.0
2017-Feb-21 02:33N 28°08' W 015°25'0 0.0
2017-Feb-21 01:33N 28°08' W 015°25'0 0.0
2017-Feb-21 00:33N 28°08' W 015°25'0 0.0
2017-Feb-20 23:33N 28°08' W 015°25'0 0.0
2017-Feb-20 22:33N 28°08' W 015°25'0 0.0
2017-Feb-20 21:33N 28°08' W 015°25'0 0.0
2017-Feb-20 20:33N 28°08' W 015°25'0 0.0
2017-Feb-20 19:33N 28°08' W 015°25'5 5.3
2017-Feb-20 18:33N 28°06' W 015°19'2120.9
2017-Feb-20 17:33N 28°04' W 014°56'2120.8
2017-Feb-20 16:33N 28°02' W 014°32'9 6.5
2017-Feb-20 15:06N 28°03' W 014°22'0 0.0
2017-Feb-20 14:30N 28°03' W 014°22'0 0.0
2017-Feb-20 13:33N 28°03' W 014°22'0 0.0
2017-Feb-20 11:25N 28°03' W 014°22'8 8.2
2017-Feb-20 10:26N 28°02' W 014°31'1820.8
2017-Feb-20 09:33N 28°04' W 014°51'29 0.6
2017-Feb-18 10:33N 28°10' W 015°24'1110.6
2017-Feb-18 09:33N 28°15' W 015°34'2120.8
2017-Feb-18 08:33N 28°23' W 015°56'1712.3
2017-Feb-18 07:09N 28°28' W 016°15'0 0.0
2017-Feb-18 04:25N 28°28' W 016°15'0 0.0
2017-Feb-17 23:33N 28°28' W 016°15'2 1.6
2017-Feb-17 22:31N 28°29' W 016°13'2220.7
2017-Feb-17 21:26N 28°21' W 015°49'1921.0
2017-Feb-17 20:33N 28°14' W 015°30'7 6.5
2017-Feb-17 19:33N 28°10' W 015°24'3 3.4
2017-Feb-17 18:33N 28°08' W 015°20'2120.9
2017-Feb-17 17:33N 28°05' W 014°57'2120.8
2017-Feb-17 16:33N 28°02' W 014°34'1010.5
2017-Feb-17 15:33N 28°03' W 014°22'0 0.0
2017-Feb-17 14:33N 28°03' W 014°22'1 0.7
2017-Feb-17 13:33N 28°03' W 014°23'2020.4
2017-Feb-17 12:34N 28°04' W 014°45'2121.2
2017-Feb-17 11:34N 28°07' W 015°09'1313.3
2017-Feb-17 10:33N 28°10' W 015°24'1010.1
2017-Feb-17 09:33N 28°15' W 015°33'2121.2
2017-Feb-17 08:33N 28°23' W 015°56'1717.1
2017-Feb-17 07:32N 28°28' W 016°15'0 0.0
2017-Feb-17 06:25N 28°28' W 016°15'0 0.0
2017-Feb-17 05:33N 28°28' W 016°15'0 0.0
2017-Feb-17 04:33N 28°28' W 016°15'0 0.0
2017-Feb-17 03:21N 28°28' W 016°15'0 0.0
2017-Feb-17 02:27N 28°28' W 016°15'0 0.0
2017-Feb-17 01:33N 28°28' W 016°15'0 0.0
2017-Feb-17 00:33N 28°28' W 016°15'0 0.0
2017-Feb-16 23:29N 28°28' W 016°15'2411.6
2017-Feb-16 21:24N 28°20' W 015°49'1821.1
2017-Feb-16 20:33N 28°14' W 015°30'7 6.6
2017-Feb-16 19:33N 28°10' W 015°24'0 0.4
2017-Feb-16 18:33N 28°09' W 015°24'2019.6
2017-Feb-16 17:33N 28°18' W 015°43'2120.8
2017-Feb-16 16:33N 28°26' W 016°05'9 8.5
2017-Feb-16 15:33N 28°28' W 016°15'0 0.2
2017-Feb-16 14:33N 28°28' W 016°15'2218.2
2017-Feb-16 13:22N 28°21' W 015°51'1721.4
2017-Feb-16 12:33N 28°15' W 015°33'10 9.5
2017-Feb-16 11:33N 28°10' W 015°24'0 0.0
2017-Feb-16 10:33N 28°10' W 015°24'7 7.1
2017-Feb-16 09:33N 28°14' W 015°30'2121.3
2017-Feb-16 08:33N 28°22' W 015°53'20 2.2
2017-Feb-15 23:26N 28°28' W 016°15'2010.5
2017-Feb-15 21:29N 28°22' W 015°53'2022.0
2017-Feb-15 20:33N 28°14' W 015°31'8 8.1
2017-Feb-15 19:34N 28°10' W 015°24'1 1.2
2017-Feb-15 18:33N 28°09' W 015°23'2221.7
2017-Feb-15 17:33N 28°05' W 014°59'2221.7
2017-Feb-15 16:33N 28°02' W 014°34'1111.0
2017-Feb-15 15:33N 28°03' W 014°22'0 0.0
2017-Feb-15 14:33N 28°03' W 014°22'0 0.0
2017-Feb-15 13:33N 28°03' W 014°22'0 0.0
2017-Feb-15 12:33N 28°03' W 014°22'  

Dump ship's entire track history